sensor_id;sensor_type;location;lat;lon;timestamp;pressure;altitude;pressure_sealevel;temperature;humidity
49194;BME280;35029;50.804;12.866;2024-03-25T00:00:16;96201.50;;;4.40;100.00
49194;BME280;35029;50.804;12.866;2024-03-25T00:02:52;96211.00;;;4.41;100.00
49194;BME280;35029;50.804;12.866;2024-03-25T00:05:19;96210.38;;;4.39;100.00
49194;BME280;35029;50.804;12.866;2024-03-25T00:07:48;96212.78;;;4.34;100.00
49194;BME280;35029;50.804;12.866;2024-03-25T00:10:14;96212.34;;;4.30;100.00
49194;BME280;35029;50.804;12.866;2024-03-25T00:12:40;96216.31;;;4.19;100.00
49194;BME280;35029;50.804;12.866;2024-03-25T00:15:06;96232.88;;;4.20;100.00
49194;BME280;35029;50.804;12.866;2024-03-25T00:17:33;96228.25;;;4.22;100.00
49194;BME280;35029;50.804;12.866;2024-03-25T00:19:59;96244.63;;;4.24;100.00
49194;BME280;35029;50.804;12.866;2024-03-25T00:22:24;96242.03;;;4.02;100.00
49194;BME280;35029;50.804;12.866;2024-03-25T00:24:53;96239.78;;;3.99;100.00
49194;BME280;35029;50.804;12.866;2024-03-25T00:27:18;96260.34;;;3.96;100.00
49194;BME280;35029;50.804;12.866;2024-03-25T00:29:44;96256.09;;;3.95;100.00
49194;BME280;35029;50.804;12.866;2024-03-25T00:32:10;96241.09;;;3.82;100.00
49194;BME280;35029;50.804;12.866;2024-03-25T00:34:36;96253.16;;;3.83;100.00
49194;BME280;35029;50.804;12.866;2024-03-25T00:37:02;96242.50;;;3.84;100.00
49194;BME280;35029;50.804;12.866;2024-03-25T00:39:29;96238.56;;;3.73;100.00
49194;BME280;35029;50.804;12.866;2024-03-25T00:41:58;96236.63;;;3.82;100.00
49194;BME280;35029;50.804;12.866;2024-03-25T00:44:24;96234.06;;;3.89;100.00
49194;BME280;35029;50.804;12.866;2024-03-25T00:46:49;96239.25;;;3.82;100.00
49194;BME280;35029;50.804;12.866;2024-03-25T00:49:15;96235.69;;;3.90;100.00
49194;BME280;35029;50.804;12.866;2024-03-25T00:51:42;96243.78;;;3.95;100.00
49194;BME280;35029;50.804;12.866;2024-03-25T00:54:07;96238.19;;;3.98;100.00
49194;BME280;35029;50.804;12.866;2024-03-25T00:56:33;96232.56;;;4.01;100.00
49194;BME280;35029;50.804;12.866;2024-03-25T00:58:59;96232.31;;;3.96;100.00
49194;BME280;35029;50.804;12.866;2024-03-25T01:01:31;96241.78;;;3.97;100.00
49194;BME280;35029;50.804;12.866;2024-03-25T01:03:57;96233.75;;;3.99;100.00
49194;BME280;35029;50.804;12.866;2024-03-25T01:06:23;96235.16;;;4.01;100.00
49194;BME280;35029;50.804;12.866;2024-03-25T01:08:50;96242.59;;;3.98;100.00
49194;BME280;35029;50.804;12.866;2024-03-25T01:11:16;96242.19;;;3.94;100.00
49194;BME280;35029;50.804;12.866;2024-03-25T01:13:41;96240.81;;;3.98;100.00
49194;BME280;35029;50.804;12.866;2024-03-25T01:16:07;96243.63;;;3.97;100.00
49194;BME280;35029;50.804;12.866;2024-03-25T01:18:33;96241.59;;;3.99;100.00
49194;BME280;35029;50.804;12.866;2024-03-25T01:20:59;96240.41;;;4.01;100.00
49194;BME280;35029;50.804;12.866;2024-03-25T01:23:24;96225.38;;;3.88;100.00
49194;BME280;35029;50.804;12.866;2024-03-25T01:25:50;96246.47;;;4.02;100.00
49194;BME280;35029;50.804;12.866;2024-03-25T01:28:16;96252.16;;;4.05;100.00
49194;BME280;35029;50.804;12.866;2024-03-25T01:30:41;96242.97;;;3.95;100.00
49194;BME280;35029;50.804;12.866;2024-03-25T01:33:07;96267.09;;;4.12;100.00
49194;BME280;35029;50.804;12.866;2024-03-25T01:35:33;96263.81;;;4.03;100.00
49194;BME280;35029;50.804;12.866;2024-03-25T01:37:59;96267.88;;;4.05;100.00
49194;BME280;35029;50.804;12.866;2024-03-25T01:40:25;96263.16;;;3.94;100.00
49194;BME280;35029;50.804;12.866;2024-03-25T01:42:56;96266.63;;;4.01;100.00
49194;BME280;35029;50.804;12.866;2024-03-25T01:45:22;96281.84;;;4.13;100.00
49194;BME280;35029;50.804;12.866;2024-03-25T01:47:47;96280.84;;;4.14;100.00
49194;BME280;35029;50.804;12.866;2024-03-25T01:50:13;96261.84;;;4.12;100.00
49194;BME280;35029;50.804;12.866;2024-03-25T01:52:39;96276.59;;;4.13;100.00
49194;BME280;35029;50.804;12.866;2024-03-25T01:55:07;96285.50;;;4.18;100.00
49194;BME280;35029;50.804;12.866;2024-03-25T01:57:36;96281.88;;;4.19;100.00
49194;BME280;35029;50.804;12.866;2024-03-25T02:00:05;96296.19;;;4.17;100.00
49194;BME280;35029;50.804;12.866;2024-03-25T02:02:35;96286.88;;;4.14;100.00
49194;BME280;35029;50.804;12.866;2024-03-25T02:05:01;96287.66;;;4.08;100.00
49194;BME280;35029;50.804;12.866;2024-03-25T02:07:28;96282.81;;;4.05;100.00
49194;BME280;35029;50.804;12.866;2024-03-25T02:09:55;96298.47;;;4.20;100.00
49194;BME280;35029;50.804;12.866;2024-03-25T02:12:21;96286.03;;;4.07;100.00
49194;BME280;35029;50.804;12.866;2024-03-25T02:14:47;96320.28;;;4.27;100.00
49194;BME280;35029;50.804;12.866;2024-03-25T02:17:13;96308.38;;;4.25;100.00
49194;BME280;35029;50.804;12.866;2024-03-25T02:19:39;96311.59;;;4.27;100.00
49194;BME280;35029;50.804;12.866;2024-03-25T02:22:06;96316.69;;;4.35;100.00
49194;BME280;35029;50.804;12.866;2024-03-25T02:24:33;96295.84;;;4.20;100.00
49194;BME280;35029;50.804;12.866;2024-03-25T02:26:58;96307.97;;;4.28;100.00
49194;BME280;35029;50.804;12.866;2024-03-25T02:29:33;96311.97;;;4.23;100.00
49194;BME280;35029;50.804;12.866;2024-03-25T02:31:59;96320.28;;;4.27;100.00
49194;BME280;35029;50.804;12.866;2024-03-25T02:34:24;96314.22;;;4.27;100.00
49194;BME280;35029;50.804;12.866;2024-03-25T02:36:50;96319.50;;;4.33;100.00
49194;BME280;35029;50.804;12.866;2024-03-25T02:39:16;96312.75;;;4.17;100.00
49194;BME280;35029;50.804;12.866;2024-03-25T02:41:41;96335.03;;;4.28;100.00
49194;BME280;35029;50.804;12.866;2024-03-25T02:44:07;96335.03;;;4.28;100.00
49194;BME280;35029;50.804;12.866;2024-03-25T02:46:33;96320.69;;;4.24;100.00
49194;BME280;35029;50.804;12.866;2024-03-25T02:48:59;96334.25;;;4.34;100.00
49194;BME280;35029;50.804;12.866;2024-03-25T02:51:25;96329.06;;;4.41;100.00
49194;BME280;35029;50.804;12.866;2024-03-25T02:53:50;96341.38;;;4.40;100.00
49194;BME280;35029;50.804;12.866;2024-03-25T02:56:16;96338.31;;;4.37;100.00
49194;BME280;35029;50.804;12.866;2024-03-25T02:58:42;96354.44;;;4.34;100.00
49194;BME280;35029;50.804;12.866;2024-03-25T03:01:07;96356.44;;;4.32;100.00
49194;BME280;35029;50.804;12.866;2024-03-25T03:03:33;96358.59;;;4.21;100.00
49194;BME280;35029;50.804;12.866;2024-03-25T03:05:58;96373.94;;;4.25;100.00
49194;BME280;35029;50.804;12.866;2024-03-25T03:08:24;96367.66;;;4.19;100.00
49194;BME280;35029;50.804;12.866;2024-03-25T03:10:49;96376.13;;;3.99;100.00
49194;BME280;35029;50.804;12.866;2024-03-25T03:13:15;96382.59;;;3.97;100.00
49194;BME280;35029;50.804;12.866;2024-03-25T03:15:46;96357.47;;;3.87;100.00
49194;BME280;35029;50.804;12.866;2024-03-25T03:18:12;96371.19;;;3.89;100.00
49194;BME280;35029;50.804;12.866;2024-03-25T03:20:40;96380.81;;;4.04;100.00
49194;BME280;35029;50.804;12.866;2024-03-25T03:23:06;96392.16;;;3.89;100.00
49194;BME280;35029;50.804;12.866;2024-03-25T03:25:31;96381.88;;;3.88;100.00
49194;BME280;35029;50.804;12.866;2024-03-25T03:27:57;96403.16;;;3.78;100.00
49194;BME280;35029;50.804;12.866;2024-03-25T03:30:22;96403.94;;;3.79;100.00
49194;BME280;35029;50.804;12.866;2024-03-25T03:32:48;96402.34;;;3.78;100.00
49194;BME280;35029;50.804;12.866;2024-03-25T03:35:13;96385.44;;;3.65;100.00
49194;BME280;35029;50.804;12.866;2024-03-25T03:37:40;96403.16;;;3.78;100.00
49194;BME280;35029;50.804;12.866;2024-03-25T03:40:06;96399.88;;;3.76;100.00
49194;BME280;35029;50.804;12.866;2024-03-25T03:42:32;96412.84;;;3.78;100.00
49194;BME280;35029;50.804;12.866;2024-03-25T03:44:58;96411.28;;;3.83;100.00
49194;BME280;35029;50.804;12.866;2024-03-25T03:47:24;96412.84;;;3.78;100.00
49194;BME280;35029;50.804;12.866;2024-03-25T03:49:50;96423.84;;;3.73;100.00
49194;BME280;35029;50.804;12.866;2024-03-25T03:52:15;96420.34;;;3.66;100.00
49194;BME280;35029;50.804;12.866;2024-03-25T03:54:41;96426.59;;;3.65;100.00
49194;BME280;35029;50.804;12.866;2024-03-25T03:57:06;96416.28;;;3.63;100.00
49194;BME280;35029;50.804;12.866;2024-03-25T03:59:32;96415.31;;;3.64;100.00
49194;BME280;35029;50.804;12.866;2024-03-25T04:01:57;96415.84;;;3.60;100.00
49194;BME280;35029;50.804;12.866;2024-03-25T04:04:23;96424.53;;;3.60;100.00
49194;BME280;35029;50.804;12.866;2024-03-25T04:06:49;96427.69;;;3.55;100.00
49194;BME280;35029;50.804;12.866;2024-03-25T04:09:14;96414.75;;;3.54;100.00
49194;BME280;35029;50.804;12.866;2024-03-25T04:11:40;96421.06;;;3.60;100.00
49194;BME280;35029;50.804;12.866;2024-03-25T04:14:05;96419.97;;;3.69;100.00
49194;BME280;35029;50.804;12.866;2024-03-25T04:16:31;96436.69;;;3.68;100.00
49194;BME280;35029;50.804;12.866;2024-03-25T04:18:57;96446.56;;;3.66;100.00
49194;BME280;35029;50.804;12.866;2024-03-25T04:21:23;96447.44;;;3.73;100.00
49194;BME280;35029;50.804;12.866;2024-03-25T04:23:49;96454.44;;;3.66;100.00
49194;BME280;35029;50.804;12.866;2024-03-25T04:26:15;96448.81;;;3.54;100.00
49194;BME280;35029;50.804;12.866;2024-03-25T04:28:41;96457.34;;;3.56;100.00
49194;BME280;35029;50.804;12.866;2024-03-25T04:31:09;96458.94;;;3.57;100.00
49194;BME280;35029;50.804;12.866;2024-03-25T04:33:35;96456.69;;;3.54;100.00
49194;BME280;35029;50.804;12.866;2024-03-25T04:36:00;96466.00;;;3.57;100.00
49194;BME280;35029;50.804;12.866;2024-03-25T04:38:26;96462.38;;;3.58;100.00
49194;BME280;35029;50.804;12.866;2024-03-25T04:40:52;96456.97;;;3.59;100.00
49194;BME280;35029;50.804;12.866;2024-03-25T04:43:17;96468.00;;;3.54;100.00
49194;BME280;35029;50.804;12.866;2024-03-25T04:45:43;96470.25;;;3.58;100.00
49194;BME280;35029;50.804;12.866;2024-03-25T04:48:10;96482.00;;;3.47;100.00
49194;BME280;35029;50.804;12.866;2024-03-25T04:50:36;96479.56;;;3.45;100.00
49194;BME280;35029;50.804;12.866;2024-03-25T04:53:02;96484.06;;;3.51;100.00
49194;BME280;35029;50.804;12.866;2024-03-25T04:55:28;96477.56;;;3.62;100.00
49194;BME280;35029;50.804;12.866;2024-03-25T04:57:53;96478.38;;;3.63;100.00
49194;BME280;35029;50.804;12.866;2024-03-25T05:00:19;96476.03;;;3.53;100.00
49194;BME280;35029;50.804;12.866;2024-03-25T05:02:45;96468.53;;;3.50;100.00
49194;BME280;35029;50.804;12.866;2024-03-25T05:05:10;96488.13;;;3.69;100.00
49194;BME280;35029;50.804;12.866;2024-03-25T05:07:36;96497.16;;;3.66;100.00
49194;BME280;35029;50.804;12.866;2024-03-25T05:10:03;96494.91;;;3.63;100.00
49194;BME280;35029;50.804;12.866;2024-03-25T05:12:29;96498.41;;;3.70;100.00
49194;BME280;35029;50.804;12.866;2024-03-25T05:14:58;96496.53;;;3.79;100.00
49194;BME280;35029;50.804;12.866;2024-03-25T05:17:24;96507.28;;;3.69;100.00
49194;BME280;35029;50.804;12.866;2024-03-25T05:19:49;96504.59;;;3.63;100.00
49194;BME280;35029;50.804;12.866;2024-03-25T05:22:16;96506.28;;;3.70;100.00
49194;BME280;35029;50.804;12.866;2024-03-25T05:24:41;96511.53;;;3.70;100.00
49194;BME280;35029;50.804;12.866;2024-03-25T05:27:07;96507.09;;;3.71;100.00
49194;BME280;35029;50.804;12.866;2024-03-25T05:29:32;96518.59;;;3.70;100.00
49194;BME280;35029;50.804;12.866;2024-03-25T05:32:00;96526.44;;;3.70;100.00
49194;BME280;35029;50.804;12.866;2024-03-25T05:34:27;96524.25;;;3.73;100.00
49194;BME280;35029;50.804;12.866;2024-03-25T05:36:53;96528.31;;;3.76;100.00
49194;BME280;35029;50.804;12.866;2024-03-25T05:39:18;96527.72;;;3.74;100.00
49194;BME280;35029;50.804;12.866;2024-03-25T05:41:45;96528.78;;;3.80;100.00
49194;BME280;35029;50.804;12.866;2024-03-25T05:44:11;96540.06;;;3.80;100.00
49194;BME280;35029;50.804;12.866;2024-03-25T05:46:36;96518.13;;;3.66;100.00
49194;BME280;35029;50.804;12.866;2024-03-25T05:49:03;96546.66;;;3.76;100.00
49194;BME280;35029;50.804;12.866;2024-03-25T05:51:29;96531.41;;;3.65;100.00
49194;BME280;35029;50.804;12.866;2024-03-25T05:53:55;96522.28;;;3.61;100.00
49194;BME280;35029;50.804;12.866;2024-03-25T05:56:21;96546.94;;;3.66;100.00
49194;BME280;35029;50.804;12.866;2024-03-25T05:58:46;96547.69;;;3.60;100.00
49194;BME280;35029;50.804;12.866;2024-03-25T06:01:12;96552.09;;;3.60;100.00
49194;BME280;35029;50.804;12.866;2024-03-25T06:03:38;96554.00;;;3.51;100.00
49194;BME280;35029;50.804;12.866;2024-03-25T06:06:04;96568.09;;;3.50;100.00
49194;BME280;35029;50.804;12.866;2024-03-25T06:08:29;96557.59;;;3.50;100.00
49194;BME280;35029;50.804;12.866;2024-03-25T06:11:00;96549.56;;;3.36;100.00
49194;BME280;35029;50.804;12.866;2024-03-25T06:13:26;96556.13;;;3.32;100.00
49194;BME280;35029;50.804;12.866;2024-03-25T06:15:51;96561.19;;;3.34;100.00
49194;BME280;35029;50.804;12.866;2024-03-25T06:18:17;96580.47;;;3.41;100.00
49194;BME280;35029;50.804;12.866;2024-03-25T06:20:43;96576.50;;;3.45;100.00
49194;BME280;35029;50.804;12.866;2024-03-25T06:23:08;96584.97;;;3.47;100.00
49194;BME280;35029;50.804;12.866;2024-03-25T06:25:34;96588.59;;;3.46;100.00
49194;BME280;35029;50.804;12.866;2024-03-25T06:28:02;96584.28;;;3.53;100.00
49194;BME280;35029;50.804;12.866;2024-03-25T06:30:27;96591.41;;;3.60;100.00
49194;BME280;35029;50.804;12.866;2024-03-25T06:33:11;96591.59;;;3.58;100.00
49194;BME280;35029;50.804;12.866;2024-03-25T06:35:55;96603.16;;;3.64;100.00
49194;BME280;35029;50.804;12.866;2024-03-25T06:38:21;96612.19;;;3.76;100.00
49194;BME280;35029;50.804;12.866;2024-03-25T06:40:46;96596.47;;;3.76;100.00
49194;BME280;35029;50.804;12.866;2024-03-25T06:43:12;96616.09;;;3.80;100.00
49194;BME280;35029;50.804;12.866;2024-03-25T06:45:39;96598.09;;;3.77;100.00
49194;BME280;35029;50.804;12.866;2024-03-25T06:48:05;96611.03;;;3.94;100.00
49194;BME280;35029;50.804;12.866;2024-03-25T06:50:31;96614.75;;;3.99;100.00
49194;BME280;35029;50.804;12.866;2024-03-25T06:52:57;96620.34;;;3.96;100.00
49194;BME280;35029;50.804;12.866;2024-03-25T06:55:22;96611.03;;;3.94;100.00
49194;BME280;35029;50.804;12.866;2024-03-25T06:57:53;96614.50;;;4.09;100.00
49194;BME280;35029;50.804;12.866;2024-03-25T07:00:18;96622.25;;;4.17;100.00
49194;BME280;35029;50.804;12.866;2024-03-25T07:02:50;96622.88;;;4.19;100.00
49194;BME280;35029;50.804;12.866;2024-03-25T07:05:16;96630.56;;;4.21;100.00
49194;BME280;35029;50.804;12.866;2024-03-25T07:07:42;96632.75;;;4.32;100.00
49194;BME280;35029;50.804;12.866;2024-03-25T07:10:07;96631.47;;;4.28;100.00
49194;BME280;35029;50.804;12.866;2024-03-25T07:12:34;96618.00;;;4.16;100.00
49194;BME280;35029;50.804;12.866;2024-03-25T07:15:00;96621.78;;;4.29;100.00
49194;BME280;35029;50.804;12.866;2024-03-25T07:17:26;96644.13;;;4.25;100.00
49194;BME280;35029;50.804;12.866;2024-03-25T07:19:52;96645.03;;;4.32;100.00
49194;BME280;35029;50.804;12.866;2024-03-25T07:22:17;96640.16;;;4.29;100.00
49194;BME280;35029;50.804;12.866;2024-03-25T07:24:43;96654.06;;;4.29;100.00
49194;BME280;35029;50.804;12.866;2024-03-25T07:27:08;96650.38;;;4.23;100.00
49194;BME280;35029;50.804;12.866;2024-03-25T07:29:35;96632.09;;;4.30;100.00
49194;BME280;35029;50.804;12.866;2024-03-25T07:32:00;96643.69;;;4.72;100.00
49194;BME280;35029;50.804;12.866;2024-03-25T07:34:26;96649.28;;;4.84;100.00
49194;BME280;35029;50.804;12.866;2024-03-25T07:36:51;96647.56;;;4.77;100.00
49194;BME280;35029;50.804;12.866;2024-03-25T07:39:17;96647.50;;;4.70;100.00
49194;BME280;35029;50.804;12.866;2024-03-25T07:41:42;96655.09;;;4.65;100.00
49194;BME280;35029;50.804;12.866;2024-03-25T07:44:08;96660.13;;;4.60;100.00
49194;BME280;35029;50.804;12.866;2024-03-25T07:46:34;96656.25;;;4.77;100.00
49194;BME280;35029;50.804;12.866;2024-03-25T07:48:59;96657.81;;;4.71;100.00
49194;BME280;35029;50.804;12.866;2024-03-25T07:51:25;96653.81;;;4.76;100.00
49194;BME280;35029;50.804;12.866;2024-03-25T07:53:51;96664.78;;;5.01;100.00
49194;BME280;35029;50.804;12.866;2024-03-25T07:56:16;96654.78;;;5.11;100.00
49194;BME280;35029;50.804;12.866;2024-03-25T07:58:42;96675.31;;;5.22;100.00
49194;BME280;35029;50.804;12.866;2024-03-25T08:01:07;96665.03;;;4.84;100.00
49194;BME280;35029;50.804;12.866;2024-03-25T08:03:33;96661.97;;;5.02;100.00
49194;BME280;35029;50.804;12.866;2024-03-25T08:05:59;96658.78;;;5.07;100.00
49194;BME280;35029;50.804;12.866;2024-03-25T08:08:25;96680.06;;;5.12;100.00
49194;BME280;35029;50.804;12.866;2024-03-25T08:10:50;96687.56;;;5.15;100.00
49194;BME280;35029;50.804;12.866;2024-03-25T08:13:18;96680.88;;;4.91;100.00
49194;BME280;35029;50.804;12.866;2024-03-25T08:15:45;96690.66;;;4.82;100.00
49194;BME280;35029;50.804;12.866;2024-03-25T08:18:11;96684.75;;;4.95;100.00
49194;BME280;35029;50.804;12.866;2024-03-25T08:20:37;96686.19;;;4.98;100.00
49194;BME280;35029;50.804;12.866;2024-03-25T08:23:03;96688.16;;;4.96;100.00
49194;BME280;35029;50.804;12.866;2024-03-25T08:25:29;96687.94;;;5.12;100.00
49194;BME280;35029;50.804;12.866;2024-03-25T08:27:55;96693.84;;;5.14;100.00
49194;BME280;35029;50.804;12.866;2024-03-25T08:30:21;96692.47;;;5.18;100.00
49194;BME280;35029;50.804;12.866;2024-03-25T08:32:47;96691.13;;;5.07;100.00
49194;BME280;35029;50.804;12.866;2024-03-25T08:35:13;96707.97;;;5.13;100.00
49194;BME280;35029;50.804;12.866;2024-03-25T08:37:39;96709.66;;;4.84;100.00
49194;BME280;35029;50.804;12.866;2024-03-25T08:40:05;96709.88;;;4.68;100.00
49194;BME280;35029;50.804;12.866;2024-03-25T08:42:31;96713.31;;;4.53;100.00
49194;BME280;35029;50.804;12.866;2024-03-25T08:44:56;96712.53;;;4.53;100.00
49194;BME280;35029;50.804;12.866;2024-03-25T08:47:22;96705.91;;;4.42;100.00
49194;BME280;35029;50.804;12.866;2024-03-25T08:49:48;96717.78;;;4.53;100.00
49194;BME280;35029;50.804;12.866;2024-03-25T08:52:13;96711.97;;;4.43;100.00
49194;BME280;35029;50.804;12.866;2024-03-25T08:54:39;96717.59;;;4.54;100.00
49194;BME280;35029;50.804;12.866;2024-03-25T08:57:04;96710.00;;;4.81;100.00
49194;BME280;35029;50.804;12.866;2024-03-25T08:59:30;96710.97;;;5.10;100.00
49194;BME280;35029;50.804;12.866;2024-03-25T09:01:56;96708.41;;;5.38;100.00
49194;BME280;35029;50.804;12.866;2024-03-25T09:04:21;96721.72;;;5.37;100.00
49194;BME280;35029;50.804;12.866;2024-03-25T09:06:48;96715.22;;;5.54;100.00
49194;BME280;35029;50.804;12.866;2024-03-25T09:09:13;96723.59;;;5.86;100.00
49194;BME280;35029;50.804;12.866;2024-03-25T09:11:57;96717.31;;;5.87;100.00
49194;BME280;35029;50.804;12.866;2024-03-25T09:14:23;96715.56;;;6.16;100.00
49194;BME280;35029;50.804;12.866;2024-03-25T09:16:49;96714.84;;;6.36;100.00
49194;BME280;35029;50.804;12.866;2024-03-25T09:19:14;96724.84;;;6.19;100.00
49194;BME280;35029;50.804;12.866;2024-03-25T09:21:40;96717.69;;;6.06;100.00
49194;BME280;35029;50.804;12.866;2024-03-25T09:24:06;96729.03;;;6.06;100.00
49194;BME280;35029;50.804;12.866;2024-03-25T09:26:31;96732.91;;;5.89;100.00
49194;BME280;35029;50.804;12.866;2024-03-25T09:28:57;96739.13;;;5.81;100.00
49194;BME280;35029;50.804;12.866;2024-03-25T09:31:22;96751.41;;;5.74;100.00
49194;BME280;35029;50.804;12.866;2024-03-25T09:33:48;96746.09;;;5.67;100.00
49194;BME280;35029;50.804;12.866;2024-03-25T09:36:14;96744.78;;;5.56;100.00
49194;BME280;35029;50.804;12.866;2024-03-25T09:38:40;96758.06;;;5.48;100.00
49194;BME280;35029;50.804;12.866;2024-03-25T09:41:08;96752.59;;;5.50;100.00
49194;BME280;35029;50.804;12.866;2024-03-25T09:43:43;96765.16;;;5.54;100.00
49194;BME280;35029;50.804;12.866;2024-03-25T09:46:09;96742.75;;;5.37;100.00
49194;BME280;35029;50.804;12.866;2024-03-25T09:48:36;96764.00;;;5.57;100.00
49194;BME280;35029;50.804;12.866;2024-03-25T09:51:02;96754.78;;;5.68;100.00
49194;BME280;35029;50.804;12.866;2024-03-25T09:53:28;96754.91;;;5.81;100.00
49194;BME280;35029;50.804;12.866;2024-03-25T09:55:55;96753.84;;;5.97;100.00
49194;BME280;35029;50.804;12.866;2024-03-25T09:58:22;96757.16;;;6.06;100.00
49194;BME280;35029;50.804;12.866;2024-03-25T10:00:49;96755.91;;;6.02;100.00
49194;BME280;35029;50.804;12.866;2024-03-25T10:03:15;96754.97;;;6.09;100.00
49194;BME280;35029;50.804;12.866;2024-03-25T10:05:40;96749.88;;;6.08;100.00
49194;BME280;35029;50.804;12.866;2024-03-25T10:08:07;96747.34;;;6.21;100.00
49194;BME280;35029;50.804;12.866;2024-03-25T10:10:35;96753.66;;;6.27;100.00
49194;BME280;35029;50.804;12.866;2024-03-25T10:13:05;96752.06;;;6.26;100.00
49194;BME280;35029;50.804;12.866;2024-03-25T10:15:32;96754.03;;;6.24;100.00
49194;BME280;35029;50.804;12.866;2024-03-25T10:17:58;96757.81;;;6.15;100.00
49194;BME280;35029;50.804;12.866;2024-03-25T10:20:23;96757.22;;;6.13;100.00
49194;BME280;35029;50.804;12.866;2024-03-25T10:22:49;96755.03;;;6.23;100.00
49194;BME280;35029;50.804;12.866;2024-03-25T10:25:28;96755.03;;;6.16;100.00
49194;BME280;35029;50.804;12.866;2024-03-25T10:27:59;96746.78;;;6.26;100.00
49194;BME280;35029;50.804;12.866;2024-03-25T10:30:28;96747.34;;;6.21;100.00
49194;BME280;35029;50.804;12.866;2024-03-25T10:33:04;96752.91;;;6.33;100.00
49194;BME280;35029;50.804;12.866;2024-03-25T10:35:31;96749.63;;;6.24;100.00
49194;BME280;35029;50.804;12.866;2024-03-25T10:38:02;96753.13;;;6.38;100.00
49194;BME280;35029;50.804;12.866;2024-03-25T10:40:32;96753.91;;;6.32;100.00
49194;BME280;35029;50.804;12.866;2024-03-25T10:43:07;96764.03;;;6.35;98.61
49194;BME280;35029;50.804;12.866;2024-03-25T10:45:49;96750.69;;;6.37;100.00
49194;BME280;35029;50.804;12.866;2024-03-25T10:48:28;96758.22;;;6.40;100.00
49194;BME280;35029;50.804;12.866;2024-03-25T10:50:55;96753.78;;;6.47;100.00
49194;BME280;35029;50.804;12.866;2024-03-25T10:53:22;96755.38;;;6.41;99.27
49194;BME280;35029;50.804;12.866;2024-03-25T10:55:50;96749.69;;;6.38;98.92
49194;BME280;35029;50.804;12.866;2024-03-25T10:58:17;96752.19;;;6.53;98.68
49194;BME280;35029;50.804;12.866;2024-03-25T11:00:45;96755.50;;;6.62;98.30
49194;BME280;35029;50.804;12.866;2024-03-25T11:03:11;96748.75;;;6.52;95.71
49194;BME280;35029;50.804;12.866;2024-03-25T11:05:38;96751.06;;;6.69;95.75
49194;BME280;35029;50.804;12.866;2024-03-25T11:08:14;96762.38;;;6.56;97.70
49194;BME280;35029;50.804;12.866;2024-03-25T11:10:49;96754.91;;;6.66;94.48
49194;BME280;35029;50.804;12.866;2024-03-25T11:13:19;96752.38;;;6.86;94.36
49194;BME280;35029;50.804;12.866;2024-03-25T11:15:47;96752.63;;;6.98;91.19
49194;BME280;35029;50.804;12.866;2024-03-25T11:18:14;96734.41;;;7.10;94.04
49194;BME280;35029;50.804;12.866;2024-03-25T11:20:41;96731.16;;;7.01;90.47
49194;BME280;35029;50.804;12.866;2024-03-25T11:23:13;96737.84;;;6.97;92.39
49194;BME280;35029;50.804;12.866;2024-03-25T11:25:41;96737.16;;;6.88;93.03
49194;BME280;35029;50.804;12.866;2024-03-25T11:28:10;96741.81;;;6.80;91.28
49194;BME280;35029;50.804;12.866;2024-03-25T11:30:37;96746.66;;;6.76;92.34
49194;BME280;35029;50.804;12.866;2024-03-25T11:33:04;96720.22;;;6.56;90.01
49194;BME280;35029;50.804;12.866;2024-03-25T11:35:38;96740.13;;;6.72;91.74
49194;BME280;35029;50.804;12.866;2024-03-25T11:38:04;96742.53;;;6.60;86.15
49194;BME280;35029;50.804;12.866;2024-03-25T11:40:30;96739.22;;;6.51;87.84
49194;BME280;35029;50.804;12.866;2024-03-25T11:42:56;96747.97;;;6.52;88.12
49194;BME280;35029;50.804;12.866;2024-03-25T11:45:23;96742.22;;;6.41;89.17
49194;BME280;35029;50.804;12.866;2024-03-25T11:47:50;96744.44;;;6.45;87.91
49194;BME280;35029;50.804;12.866;2024-03-25T11:50:19;96741.63;;;6.46;88.44
49194;BME280;35029;50.804;12.866;2024-03-25T11:52:45;96729.72;;;6.57;90.04
49194;BME280;35029;50.804;12.866;2024-03-25T11:55:18;96739.91;;;6.60;90.13
49194;BME280;35029;50.804;12.866;2024-03-25T11:57:54;96739.53;;;6.70;89.37
49194;BME280;35029;50.804;12.866;2024-03-25T12:00:20;96743.13;;;6.62;87.00
49194;BME280;35029;50.804;12.866;2024-03-25T12:02:48;96742.56;;;6.73;85.50
49194;BME280;35029;50.804;12.866;2024-03-25T12:05:16;96740.25;;;6.99;87.66
49194;BME280;35029;50.804;12.866;2024-03-25T12:07:41;96735.03;;;7.12;84.52
49194;BME280;35029;50.804;12.866;2024-03-25T12:10:07;96728.00;;;7.33;82.86
49194;BME280;35029;50.804;12.866;2024-03-25T12:12:52;96742.47;;;7.57;79.53
49194;BME280;35029;50.804;12.866;2024-03-25T12:15:22;96724.41;;;8.01;78.11
49194;BME280;35029;50.804;12.866;2024-03-25T12:17:48;96722.09;;;8.71;72.02
49194;BME280;35029;50.804;12.866;2024-03-25T12:20:16;96723.63;;;8.92;75.92
49194;BME280;35029;50.804;12.866;2024-03-25T12:22:43;96729.94;;;8.85;70.09
49194;BME280;35029;50.804;12.866;2024-03-25T12:25:09;96721.28;;;8.57;71.88
49194;BME280;35029;50.804;12.866;2024-03-25T12:27:37;96731.47;;;8.40;70.72
49194;BME280;35029;50.804;12.866;2024-03-25T12:30:05;96722.53;;;8.41;75.13
49194;BME280;35029;50.804;12.866;2024-03-25T12:34:58;96723.53;;;8.60;71.61
49194;BME280;35029;50.804;12.866;2024-03-25T12:37:26;96723.25;;;9.27;73.81
49194;BME280;35029;50.804;12.866;2024-03-25T12:39:51;96721.06;;;9.18;73.49
49194;BME280;35029;50.804;12.866;2024-03-25T12:42:17;96708.88;;;8.71;69.44
49194;BME280;35029;50.804;12.866;2024-03-25T12:44:43;96725.19;;;8.35;70.74
49194;BME280;35029;50.804;12.866;2024-03-25T12:47:09;96715.44;;;8.22;72.92
49194;BME280;35029;50.804;12.866;2024-03-25T12:49:34;96719.72;;;8.23;75.34
49194;BME280;35029;50.804;12.866;2024-03-25T12:52:00;96721.34;;;8.04;72.91